IPO Monitor
Subscribe Login Login About Us Contact Us Help
Quarterly Reviews
Report Criteria
Report Type: Offer to Most Recent Quote
Period: Apr. 1, 2007 to Jun. 30, 2007
Sort Criteria: Chronological
Industry: All Industries
Securities Types: Common Stock, ADS, EIS, IDS
Underwriting Types: Firm Committment
Region(s):
Foreign Companies: Included
Report Statistics
Number of Companies: 103
Largest Company: Crown Castle International Corp
Smallest Company: Macquarie Infrastructure Assets LLC
Best Performer: Crown Castle International Corp
Worst Performer: CapLease Inc. (Capital Lease Funding)
Total Amount Raised: $11,562.1 Mil.
Average Amount Raised: $112.3 Mil.
Average Percentage Change: 3.6%

Company Symbol Offer
Type
Offer
Date
Amount
Raised
($mil.)
Offer
Price
Close
Price (2007-06-29)
Percent
Change
Market
Value
($mil.)
Crown Castle International Corp CCI Secondary 2007-06-29 0.000 35.83 36.27 +1.2% 9,003.8
Brooke Corp. BXXX Secondary 2007-06-29 20.3 13.50 - n/a n/a
MMC Energy Inc. MMCE Secondary 2007-06-29 50.1 5.50 - n/a n/a
TravelCenters of America LLC TA Secondary 2007-06-29 201.4 41.10 40.45 -1.6% 518.1
Euroseas Ltd. ESEA Secondary 2007-06-29 67.5 13.50 14.26 +5.6% 333.3
Macquarie Infrastructure Assets LLC MIC Secondary 2007-06-29 258.2 40.99 41.48 +1.2% 0.000
Emeritus Corp. ESC Secondary 2007-06-28 325.5 31.00 30.98 -0.1% 912.0
Whiting Petroleum Corp. WLL Secondary 2007-06-28 202.5 40.50 40.52 0.0% 1,704.0
American Oriental Bioengineering Inc. AOB Secondary 2007-06-28 68.0 8.50 8.90 +4.7% 650.7
Venoco Inc. VQ Secondary 2007-06-27 112.9 18.50 18.67 +0.9% 916.8
ICICI Bank Ltd IBN Secondary 2007-06-25 2,261.7 49.25 49.15 -0.2% 0.000
IDM Pharma Inc. IDMI Secondary 2007-06-21 24.9 3.50 - n/a n/a
Onyx Pharmaceuticals Inc. ONXX Secondary 2007-06-21 184.8 28.00 26.90 -3.9% 1,452.2
American Physicians Service Group Inc. AMPH Secondary 2007-06-20 33.0 16.50 18.90 +14.5% 129.0
Alesco Financial Inc. AFN Secondary 2007-06-20 74.0 9.25 - n/a n/a
Altra Holdings Inc. AIMC Secondary 2007-06-20 29.5 16.40 17.28 +5.4% 412.1
First Mercury Financial Corp. FMR Secondary 2007-06-15 3.85 19.25 20.97 +8.9% 367.8
Arena Resources Inc ARD Secondary 2007-06-15 98.0 49.00 58.11 +18.6% 971.1
First Capital Bancorp Inc. FCVA Secondary 2007-06-14 15.8 15.75 15.99 +1.5% 0.000
RAM Holdings Ltd. RAMR Secondary 2007-06-14 0.000 15.50 15.75 +1.6% 429.0
Wireless Ronin Technologies Inc. RNIN Secondary 2007-06-14 25.2 7.00 8.00 +14.3% 102.9
CommVault Systems Inc. CVLT Secondary 2007-06-14 5.10 17.00 17.27 +1.6% 733.9
Bare Escentuals Inc. BARE Secondary 2007-06-14 3.65 36.50 - n/a n/a
Artesian Resources Corp. ARTNA Secondary 2007-06-14 19.2 19.15 19.12 -0.2% 119.6
Omniture Inc. OMTR Secondary 2007-06-13 0.000 0.00 - n/a n/a
Portland General Electric Co. POR Secondary 2007-06-13 0.000 26.00 27.44 +5.5% 1,715.2
Citi Trends Inc. CTRN Secondary 2007-06-13 0.000 37.92 37.96 +0.1% 531.1
Hertz Global Holdings Inc. HTZ Secondary 2007-06-13 0.000 22.25 26.57 +19.4% 8,531.1
MathStar Inc. MATH Secondary 2007-06-12 35.0 1.60 - n/a n/a
Acorda Therapeutics Inc. ACOR Secondary 2007-06-08 68.5 18.50 17.06 -7.8% 0.000
Century Aluminum Company CENX Secondary 2007-06-08 383.3 52.50 54.63 +4.1% 2,176.2
Auxilium Pharmaceuticals Inc. AUXL Secondary 2007-06-08 53.2 14.50 15.94 +9.9% 636.5
Anthracite Capital Inc AHR Secondary 2007-06-07 58.8 11.75 - n/a n/a
Arbor Realty Trust Inc. ABR Secondary 2007-06-07 74.7 27.65 25.81 -6.7% 521.0
Chart Industries Inc. GTLS Secondary 2007-06-07 0.000 21.25 28.44 +33.8% 729.4
Security Capital Assurance Ltd. SCA Secondary 2007-06-06 0.000 31.00 - n/a n/a
Taleo Corporation (RecruitSoft Inc.) TLEO Secondary 2007-06-06 0.000 19.85 22.53 +13.5% 544.3
Towerstream Corp. TWER Secondary 2007-06-06 40.0 4.00 3.70 -7.5% 124.8
Hercules Technology Growth Capital Inc. HTGC Secondary 2007-06-05 111.0 13.87 13.51 -2.6% 0.000
Trina Solar Ltd. TSL Secondary 2007-06-01 162.0 45.00 51.45 +14.3% 577.1
Cypress Bioscience Inc. CYPB Secondary 2007-05-31 72.9 15.50 13.26 -14.5% 0.000
DXP Enterprises Inc. DXPE Secondary 2007-05-30 47.0 47.00 42.75 -9.0% 0.000
Sunesis Pharmaceuticals Inc. SNSS Secondary 2007-05-24 0.000 4.43 3.56 -19.6% 0.000
A.M. Castle & Co. CAS Secondary 2007-05-24 77.5 33.00 35.91 +8.8% 767.0
Syntax-Brillian Corp. BRLC Secondary 2007-05-24 132.3 5.75 - n/a n/a
Dolby Laboratories Inc. DLB Secondary 2007-05-24 0.000 32.00 35.41 +10.7% 1,666.0
Allegiant Travel Co. ALGT Secondary 2007-05-24 4.94 31.75 30.74 -3.2% 615.9
Evergreen Solar Inc. ESLR Secondary 2007-05-24 123.8 8.25 9.30 +12.7% 0.000
Navios Maritime Holdings Inc. NM Secondary 2007-05-24 115.0 10.00 12.08 +20.8% 1,135.8
NitroMed, Inc NTMD Secondary 2007-05-24 0.000 2.60 - n/a n/a
CapLease Inc. (Capital Lease Funding) LSE Secondary 2007-05-23 96.8 10.75 10.75 n/a 0.000
AMAG Pharmaceuticals, Inc. (Advanced Magnetics) AMAG Secondary 2007-05-23 162.9 65.14 58.16 -10.7% 944.8
Phase Forward Inc. PFWD Secondary 2007-05-23 82.5 15.00 - n/a n/a
Omnicell, Inc. OMCL Secondary 2007-05-23 83.9 21.50 20.78 -3.3% 686.1
TransDigm Group Inc. (formerly TD Holding Corp) TDG Secondary 2007-05-22 0.000 35.25 40.46 +14.8% 1,884.7
Genomic Health Inc. GHDX Secondary 2007-05-22 46.5 15.50 18.80 +21.3% 519.5
Spirit AeroSystems Holdings Inc. SPR Secondary 2007-05-22 0.000 33.50 36.05 +7.6% 3,593.3
Ventas Inc. VTR Secondary 2007-05-18 947.7 40.50 36.25 -10.5% 4,703.4
Evercore Partners Inc. EVR Secondary 2007-05-18 46.7 29.50 29.77 +0.9% 315.4
Lan Airlines SA (LanChile) LFL Secondary 2007-05-18 181.2 80.56 84.15 +4.5% 0.000
Universal Display Corp. PANL Secondary 2007-05-18 0.000 14.50 15.71 +8.3% 0.000
Gulfport Energy Corp. GPOR Secondary 2007-05-17 24.0 16.00 19.98 +24.9% 0.000
The Goodyear Tire & Rubber Co. GT Secondary 2007-05-17 744.1 33.00 34.76 +5.3% 7,160.5
CECO Environmental Corp. CECE Secondary 2007-05-16 11.3 11.25 11.48 +2.0% 163.7
Inovio Pharmaceuticals Inc. INO Secondary 2007-05-16 16.2 3.52 2.80 -20.5% 121.6
Gold Reserve Inc. GRZ Secondary 2007-05-15 74.2 5.80 5.57 -4.0% 0.000
Geokinetics Inc. GOK Secondary 2007-05-11 126.0 28.00 31.03 +10.8% 0.000
Pharmion Corp. PHRM Secondary 2007-05-11 120.0 30.00 - n/a n/a
Javelin Pharmaceuticals Inc. JAV Secondary 2007-05-11 42.6 6.00 6.19 +3.2% 296.2
Bucyrus International Inc. BUCY Secondary 2007-05-10 306.1 66.35 70.78 +6.7% 2,597.4
Renasant Corp. RNST Secondary 2007-05-08 54.0 22.50 22.74 +1.1% 408.4
Kelly Services Inc. KELYA Secondary 2007-05-08 0.000 27.75 27.46 -1.0% 910.8
Essex Property Trust Inc. ESS Secondary 2007-05-04 193.0 128.65 116.30 -9.6% 0.000
Rigel Pharmaceuticals, Inc. RIGL Secondary 2007-05-03 48.8 9.75 8.91 -8.6% 268.9
Compass Diversified Holdings CODI Secondary 2007-05-03 128.0 16.00 17.83 +11.4% 538.7
Immunomedics Inc. IMMU Secondary 2007-05-02 24.0 4.95 4.15 -16.2% 309.8
Array Biopharma, Inc. ARRY Secondary 2007-05-02 91.0 13.00 11.67 -10.2% 548.5
Pharmacopeia Drug Discovery Inc. PCOP Secondary 2007-05-02 35.0 5.00 - n/a n/a
Home Inns & Hotels Management Inc. HMIN Secondary 2007-05-02 50.7 34.27 32.21 -6.0% 368.3
Gladstone Capital Corp. GLAD Secondary 2007-04-27 48.5 24.25 21.46 -11.5% 0.000
Genitope Corporation GTOP Secondary 2007-04-27 21.2 3.85 - n/a n/a
Alexza Pharmaceuticals Inc. ALXA Secondary 2007-04-27 61.5 10.25 8.27 -19.3% 247.3
STAAR Surgical Co. STAA Secondary 2007-04-26 15.7 5.00 3.82 -23.6% 0.000
Avigen Inc. AVGN Secondary 2007-04-26 27.8 6.94 - n/a n/a
Poniard Pharmaceuticals Inc. PARD Secondary 2007-04-25 65.2 6.33 6.80 +7.4% 225.2
Comtech Group Inc. COGO Secondary 2007-04-24 77.0 17.50 16.51 -5.7% 620.3
Tortoise Energy Infrastructure Corp. TYG Secondary 2007-04-24 43.0 31.85 41.84 +31.4% 0.000
ev3 Inc. EVVV Secondary 2007-04-20 47.5 19.00 - n/a n/a
Thomas Properties Group Inc. TPGI Secondary 2007-04-20 128.0 16.00 15.98 -0.1% 0.000
Hardinge Inc. HDNG Secondary 2007-04-20 51.7 23.50 34.03 +44.8% 358.7
Delta Petroleum Corp. DPTR Secondary 2007-04-20 127.1 20.50 20.08 -2.0% 0.000
Altus Pharmaceuticals Inc. ALTU Secondary 2007-04-19 88.5 14.75 - n/a n/a
Seaspan Corp. SSW Secondary 2007-04-19 147.3 29.45 32.18 +9.3% 1,250.6
Ashford Hospitality Trust, Inc. AHT Secondary 2007-04-19 499.4 11.75 11.76 +0.1% 1,307.9
Range Resources Corp. RRC Secondary 2007-04-18 254.0 36.28 37.41 +3.1% 5,494.6
T-3 Energy Services Inc. TTES Secondary 2007-04-18 19.1 21.99 33.45 +52.1% 389.1
MWI Veterinary Supply Inc. MWIV Secondary 2007-04-18 0.000 35.00 39.89 +14.0% 464.6
Health Care REIT HCN Secondary 2007-04-13 242.1 44.01 40.36 -8.3% 3,155.8
Gasco Energy Inc. GSX Secondary 2007-04-10 19.6 1.96 2.37 +20.9% 0.000
Vocus Inc. VOCS Secondary 2007-04-05 23.7 19.50 25.11 +28.8% 433.0
America First Tax Exempt Investors, L.P. ATAXZ Secondary 2007-04-04 26.0 8.06 - n/a n/a
Royal Gold Inc. RGLD Secondary 2007-04-04 117.0 29.25 23.77 -18.7% 670.3
Bioenvision Inc. BIVN Secondary 2007-04-02 30.0 3.75 - n/a n/a

Last Updated: 2010-12-15 21:17:20 (PT)

[ Contact Us | About Us | Site Map ]

Copyright (c) 1998-2017 IPO Monitor. All rights reserved